Time;durP1;ratioP1;P1;durP2;ratioP2;P2;SDS_P1;SDS_P2;PMS_P1;PMS_P2;Temp;Humidity;BMP_temperature;BMP_pressure;BME280_temperature;BME280_humidity;BME280_pressure;Samples;Min_cycle;Max_cycle;Signal;HPM_P1;HPM_P2
2021/12/07 00:00:29;;;;;;;;;1.33;0.67;;;;;;;;5039358;28;45462;-72
2021/12/07 00:02:54;;;;;;;;;1.75;1.50;;;;;;;;5041082;28;45487;-72
2021/12/07 00:05:19;;;;;;;;;2.00;2.00;;;;;;;;5030925;28;46318;-72
2021/12/07 00:07:45;;;;;;;;;4.50;2.75;;;;;;;;5018549;28;45485;-72
2021/12/07 00:10:12;;;;;;;;;8.75;1.00;;;;;;;;5025285;28;45440;-72
2021/12/07 00:12:40;;;;;;;;;6.75;2.25;;;;;;;;5037459;28;45404;-72
2021/12/07 00:15:06;;;;;;;;;3.00;3.00;;;;;;;;5026114;28;46022;-72
2021/12/07 00:17:32;;;;;;;;;5.00;3.00;;;;;;;;5035881;28;50407;-72
2021/12/07 00:19:58;;;;;;;;;9.75;2.00;;;;;;;;5035761;28;45508;-72
2021/12/07 00:22:24;;;;;;;;;6.25;1.50;;;;;;;;5044100;28;45729;-72
2021/12/07 00:24:49;;;;;;;;;3.00;1.00;;;;;;;;5032880;28;46389;-71
2021/12/07 00:27:14;;;;;;;;;3.00;2.00;;;;;;;;5046130;28;47022;-72
2021/12/07 00:29:40;;;;;;;;;8.50;1.00;;;;;;;;5030179;28;45588;-72
2021/12/07 00:32:21;;;;;;;;;1.25;0.00;;;;;;;;5041107;28;45396;-72
2021/12/07 00:35:14;;;;;;;;;1.25;1.00;;;;;;;;5037021;28;46152;-72
2021/12/07 00:37:34;;;;;;;;;1.50;1.00;;;;;;;;5026293;28;45789;-72
2021/12/07 00:39:59;;;;;;;;;1.25;1.25;;;;;;;;5033608;28;45445;-72
2021/12/07 00:42:25;;;;;;;;;1.00;1.00;;;;;;;;5024778;28;45505;-72
2021/12/07 00:44:51;;;;;;;;;1.00;1.00;;;;;;;;5031406;28;45496;-72
2021/12/07 00:47:16;;;;;;;;;2.25;1.00;;;;;;;;5036666;28;45501;-72
2021/12/07 00:49:42;;;;;;;;;1.00;1.00;;;;;;;;5028315;28;45494;-71
2021/12/07 00:52:07;;;;;;;;;0.75;0.75;;;;;;;;5034373;28;45585;-71
2021/12/07 00:54:32;;;;;;;;;1.25;1.25;;;;;;;;5032997;28;45466;-72
2021/12/07 00:56:58;;;;;;;;;1.50;1.50;;;;;;;;5019881;28;45430;-72
2021/12/07 00:59:23;;;;;;;;;1.50;1.50;;;;;;;;5044148;28;45638;-72
2021/12/07 01:01:48;;;;;;;;;0.00;0.00;;;;;;;;5039317;28;45531;-72
2021/12/07 01:04:14;;;;;;;;;1.00;1.00;;;;;;;;5033293;28;46344;-72
2021/12/07 01:25:38;;;;;;;;;1.00;0.00;;;;;;;;4973515;28;45642;-70
2021/12/07 01:28:21;;;;;;;;;1.00;0.00;;;;;;;;4973090;28;46413;-70
2021/12/07 01:30:58;;;;;;;;;0.00;0.00;;;;;;;;4971105;28;45554;-70
2021/12/07 01:59:36;;;;;;;;;0.50;0.50;;;;;;;;4992226;28;45622;-70
2021/12/07 02:02:05;;;;;;;;;1.00;1.00;;;;;;;;4992065;28;45599;-70
2021/12/07 02:04:31;;;;;;;;;0.00;0.00;;;;;;;;4985389;28;45813;-70
2021/12/07 02:06:56;;;;;;;;;0.00;0.00;;;;;;;;4989512;28;45867;-70
2021/12/07 02:09:21;;;;;;;;;1.33;0.00;;;;;;;;4991831;28;45350;-69
2021/12/07 02:11:50;;;;;;;;;0.00;0.00;;;;;;;;4988252;28;45432;-70
2021/12/07 02:14:18;;;;;;;;;1.50;1.00;;;;;;;;4990987;28;45415;-70
2021/12/07 02:16:51;;;;;;;;;0.75;0.00;;;;;;;;4974009;28;47338;-70
2021/12/07 02:19:16;;;;;;;;;2.00;0.00;;;;;;;;4992043;28;45861;-70
2021/12/07 02:21:42;;;;;;;;;0.00;0.00;;;;;;;;4990837;28;45693;-70
2021/12/07 02:24:07;;;;;;;;;0.75;0.50;;;;;;;;4989590;28;45485;-70
2021/12/07 02:26:33;;;;;;;;;1.00;0.00;;;;;;;;4976887;28;45368;-70
2021/12/07 02:28:58;;;;;;;;;1.00;1.00;;;;;;;;4971499;28;45630;-70
2021/12/07 02:31:24;;;;;;;;;1.50;0.00;;;;;;;;4974316;28;45420;-70
2021/12/07 02:33:49;;;;;;;;;1.50;0.00;;;;;;;;4973794;28;45451;-70
2021/12/07 02:36:15;;;;;;;;;0.00;0.00;;;;;;;;4973854;28;46338;-70
2021/12/07 02:38:40;;;;;;;;;0.00;0.00;;;;;;;;4976392;28;45330;-70
2021/12/07 02:41:05;;;;;;;;;0.00;0.00;;;;;;;;4972738;28;45411;-70
2021/12/07 02:43:30;;;;;;;;;1.00;1.00;;;;;;;;4971383;28;45488;-70
2021/12/07 02:45:56;;;;;;;;;1.67;0.67;;;;;;;;4973556;28;46416;-70
2021/12/07 02:48:21;;;;;;;;;1.00;1.00;;;;;;;;4970726;28;45280;-70
2021/12/07 02:50:47;;;;;;;;;2.00;0.25;;;;;;;;4986032;28;45462;-70
2021/12/07 02:53:12;;;;;;;;;2.00;1.00;;;;;;;;4973120;28;45324;-70
2021/12/07 02:55:38;;;;;;;;;0.00;0.00;;;;;;;;4970792;28;45424;-70
2021/12/07 02:58:03;;;;;;;;;1.67;0.00;;;;;;;;4974411;28;45552;-70
2021/12/07 03:00:36;;;;;;;;;0.67;0.00;;;;;;;;4971700;28;45425;-70
2021/12/07 03:03:07;;;;;;;;;0.00;0.00;;;;;;;;4980904;28;45514;-70
2021/12/07 03:08:25;;;;;;;;;0.00;0.00;;;;;;;;4975448;28;45440;-69
2021/12/07 03:27:14;;;;;;;;;1.75;1.75;;;;;;;;4976283;28;45687;-70
2021/12/07 03:29:39;;;;;;;;;1.00;1.00;;;;;;;;4985084;28;45713;-70
2021/12/07 03:32:04;;;;;;;;;5.33;0.67;;;;;;;;4980118;28;45468;-70
2021/12/07 03:34:29;;;;;;;;;4.25;1.00;;;;;;;;4977602;28;45407;-70
2021/12/07 03:36:55;;;;;;;;;1.00;1.00;;;;;;;;4977197;28;45422;-71
2021/12/07 03:39:20;;;;;;;;;2.50;1.00;;;;;;;;4981002;28;45516;-70
2021/12/07 03:41:45;;;;;;;;;0.67;0.00;;;;;;;;4978971;28;45388;-70
2021/12/07 03:44:10;;;;;;;;;2.33;1.00;;;;;;;;4974533;28;45337;-70
2021/12/07 03:46:36;;;;;;;;;2.25;1.00;;;;;;;;4977005;28;46153;-70
2021/12/07 03:49:01;;;;;;;;;3.33;1.00;;;;;;;;4976121;28;45473;-70
2021/12/07 03:51:26;;;;;;;;;3.33;1.67;;;;;;;;4977162;28;48137;-70
2021/12/07 03:53:51;;;;;;;;;3.67;2.00;;;;;;;;4978405;28;45693;-70
2021/12/07 03:56:16;;;;;;;;;2.00;0.33;;;;;;;;4971855;28;47693;-70
2021/12/07 03:58:42;;;;;;;;;4.00;1.33;;;;;;;;4972794;28;45482;-70
2021/12/07 04:01:09;;;;;;;;;2.25;1.50;;;;;;;;4976105;28;45509;-70
2021/12/07 04:03:35;;;;;;;;;2.50;1.00;;;;;;;;4972961;28;45546;-70
2021/12/07 04:06:05;;;;;;;;;3.25;2.00;;;;;;;;4978236;28;47204;-70
2021/12/07 04:08:31;;;;;;;;;1.25;1.25;;;;;;;;4976774;28;45344;-70
2021/12/07 04:10:56;;;;;;;;;1.00;0.25;;;;;;;;4975376;28;45516;-70
2021/12/07 04:13:24;;;;;;;;;0.25;0.25;;;;;;;;4973899;28;45435;-70
2021/12/07 04:15:49;;;;;;;;;1.00;1.00;;;;;;;;4976463;28;46945;-70
2021/12/07 04:18:15;;;;;;;;;0.50;0.50;;;;;;;;4977597;28;45510;-70
2021/12/07 04:20:40;;;;;;;;;0.00;0.00;;;;;;;;4977935;28;45430;-70
2021/12/07 04:23:06;;;;;;;;;6.25;1.00;;;;;;;;4976990;28;45419;-70
2021/12/07 04:25:31;;;;;;;;;1.25;1.00;;;;;;;;4976830;28;45374;-70
2021/12/07 04:27:57;;;;;;;;;1.00;0.00;;;;;;;;4977285;28;45431;-70
2021/12/07 04:30:23;;;;;;;;;0.00;0.00;;;;;;;;4975474;28;45207;-70
2021/12/07 04:32:49;;;;;;;;;1.00;1.00;;;;;;;;4978435;28;45511;-70
2021/12/07 04:35:15;;;;;;;;;0.00;0.00;;;;;;;;4976699;28;46540;-70
2021/12/07 04:37:40;;;;;;;;;4.50;1.75;;;;;;;;4976981;28;45361;-70
2021/12/07 04:40:07;;;;;;;;;5.33;1.00;;;;;;;;4979925;28;45684;-70
2021/12/07 04:42:32;;;;;;;;;2.00;2.00;;;;;;;;4981400;28;45453;-70
2021/12/07 04:45:01;;;;;;;;;3.67;1.00;;;;;;;;4979521;28;46708;-70
2021/12/07 04:48:31;;;;;;;;;4.75;1.50;;;;;;;;4978714;28;45710;-70
2021/12/07 04:58:16;;;;;;;;;4.75;1.25;;;;;;;;4996307;28;45454;-70
2021/12/07 05:00:41;;;;;;;;;5.00;1.00;;;;;;;;4989890;28;45465;-70
2021/12/07 05:03:11;;;;;;;;;0.00;0.00;;;;;;;;4992492;28;45627;-70
2021/12/07 05:05:42;;;;;;;;;1.00;1.00;;;;;;;;4989765;28;46344;-70
2021/12/07 05:08:11;;;;;;;;;4.75;1.50;;;;;;;;4993170;28;45426;-70
2021/12/07 05:18:38;;;;;;;;;1.00;1.00;;;;;;;;4990703;28;45505;-70
2021/12/07 05:24:23;;;;;;;;;3.00;1.00;;;;;;;;4996867;28;45345;-70
2021/12/07 05:37:50;;;;;;;;;9.50;1.75;;;;;;;;4980918;28;45567;-70
2021/12/07 05:40:20;;;;;;;;;6.50;1.25;;;;;;;;4976151;28;45306;-70
2021/12/07 05:42:46;;;;;;;;;4.50;2.50;;;;;;;;4975667;28;45478;-70
2021/12/07 05:45:13;;;;;;;;;5.00;1.75;;;;;;;;4974684;28;45339;-70
2021/12/07 05:47:38;;;;;;;;;6.75;2.00;;;;;;;;4976699;28;46600;-70
2021/12/07 05:50:05;;;;;;;;;9.50;4.50;;;;;;;;4975399;28;45472;-70
2021/12/07 05:52:31;;;;;;;;;4.25;2.50;;;;;;;;4979695;28;45525;-70
2021/12/07 05:54:56;;;;;;;;;5.00;3.33;;;;;;;;4975484;28;46643;-70
2021/12/07 05:57:21;;;;;;;;;2.33;1.33;;;;;;;;4976245;28;45593;-70
2021/12/07 05:59:46;;;;;;;;;6.00;5.00;;;;;;;;4978206;28;45422;-70
2021/12/07 06:02:11;;;;;;;;;4.00;2.00;;;;;;;;4973791;28;45541;-70
2021/12/07 06:04:37;;;;;;;;;5.67;4.00;;;;;;;;4975190;28;45332;-70
2021/12/07 06:07:03;;;;;;;;;6.00;5.75;;;;;;;;4977073;28;46353;-70
2021/12/07 06:09:29;;;;;;;;;7.00;5.00;;;;;;;;4974057;28;45510;-70
2021/12/07 06:11:54;;;;;;;;;7.67;5.00;;;;;;;;4984843;28;45256;-70
2021/12/07 06:14:20;;;;;;;;;7.67;7.00;;;;;;;;4972216;28;45559;-70
2021/12/07 06:16:46;;;;;;;;;3.00;2.00;;;;;;;;4975175;28;45769;-70
2021/12/07 06:19:12;;;;;;;;;5.50;2.00;;;;;;;;4978885;28;47775;-70
2021/12/07 06:21:37;;;;;;;;;6.00;6.00;;;;;;;;4974798;28;45483;-70
2021/12/07 06:24:02;;;;;;;;;8.67;6.00;;;;;;;;4979061;28;45796;-70
2021/12/07 06:26:27;;;;;;;;;10.00;6.00;;;;;;;;4977324;28;46506;-70
2021/12/07 06:28:52;;;;;;;;;11.33;9.00;;;;;;;;4983041;28;45405;-70
2021/12/07 06:31:18;;;;;;;;;8.00;6.67;;;;;;;;4982833;28;45466;-70
2021/12/07 06:33:43;;;;;;;;;11.33;6.67;;;;;;;;4977705;28;45451;-71
2021/12/07 06:36:09;;;;;;;;;9.33;7.00;;;;;;;;4971667;28;45429;-72
2021/12/07 06:38:34;;;;;;;;;14.00;11.75;;;;;;;;4973105;28;45411;-71
2021/12/07 06:41:00;;;;;;;;;11.67;5.00;;;;;;;;4976363;28;45616;-71
2021/12/07 06:43:26;;;;;;;;;11.00;8.25;;;;;;;;4979667;28;45488;-71
2021/12/07 06:45:51;;;;;;;;;14.25;9.25;;;;;;;;4970505;28;46025;-71
2021/12/07 06:48:16;;;;;;;;;10.25;7.75;;;;;;;;4982756;28;45466;-71
2021/12/07 06:50:42;;;;;;;;;15.33;12.33;;;;;;;;4973488;28;45557;-71
2021/12/07 06:53:07;;;;;;;;;14.00;11.00;;;;;;;;4972443;28;45416;-71
2021/12/07 06:55:32;;;;;;;;;16.75;11.25;;;;;;;;4975680;28;46324;-71
2021/12/07 06:57:57;;;;;;;;;19.00;13.00;;;;;;;;4976300;28;45494;-70
2021/12/07 07:00:23;;;;;;;;;16.00;12.00;;;;;;;;4988342;28;45423;-71
2021/12/07 07:02:48;;;;;;;;;21.50;15.50;;;;;;;;4967891;28;45308;-70
2021/12/07 07:05:14;;;;;;;;;13.00;13.00;;;;;;;;4970828;28;46828;-71
2021/12/07 07:07:40;;;;;;;;;16.25;13.25;;;;;;;;4972675;28;45583;-71
2021/12/07 07:10:06;;;;;;;;;16.50;11.25;;;;;;;;4984794;28;45509;-70
2021/12/07 07:12:31;;;;;;;;;21.75;18.50;;;;;;;;4969499;28;45538;-70
2021/12/07 07:14:57;;;;;;;;;20.00;16.00;;;;;;;;4974938;28;45380;-71
2021/12/07 07:17:22;;;;;;;;;19.67;15.33;;;;;;;;4972519;28;48895;-71
2021/12/07 07:19:47;;;;;;;;;22.75;16.00;;;;;;;;4973648;28;45446;-71
2021/12/07 07:22:13;;;;;;;;;19.25;14.25;;;;;;;;4965446;28;45564;-71
2021/12/07 07:24:38;;;;;;;;;21.33;14.33;;;;;;;;4973840;28;45490;-70
2021/12/07 07:27:03;;;;;;;;;24.50;14.25;;;;;;;;4973144;28;45364;-71
2021/12/07 07:29:29;;;;;;;;;21.25;13.50;;;;;;;;4972791;28;45541;-71
2021/12/07 07:31:54;;;;;;;;;17.33;12.33;;;;;;;;4972778;28;45534;-72
2021/12/07 07:34:19;;;;;;;;;17.33;13.00;;;;;;;;4973907;28;46709;-71
2021/12/07 07:36:44;;;;;;;;;16.33;12.67;;;;;;;;4972622;28;45427;-71
2021/12/07 07:39:10;;;;;;;;;19.33;12.67;;;;;;;;4973100;28;45475;-71
2021/12/07 07:41:35;;;;;;;;;20.75;13.00;;;;;;;;4980513;28;45612;-71
2021/12/07 07:44:00;;;;;;;;;18.75;16.00;;;;;;;;4975011;28;45466;-71
2021/12/07 07:46:26;;;;;;;;;15.67;13.67;;;;;;;;4972361;28;45587;-71
2021/12/07 07:48:51;;;;;;;;;17.00;16.00;;;;;;;;4973462;28;45450;-72
2021/12/07 07:51:16;;;;;;;;;18.00;16.00;;;;;;;;4973148;28;45447;-70
2021/12/07 07:53:42;;;;;;;;;14.67;12.00;;;;;;;;4974575;28;45508;-71
2021/12/07 07:56:07;;;;;;;;;9.00;9.00;;;;;;;;4973399;28;45458;-71
2021/12/07 07:58:33;;;;;;;;;13.00;9.25;;;;;;;;4972537;28;45404;-71
2021/12/07 08:00:58;;;;;;;;;18.50;15.00;;;;;;;;4983054;28;45664;-72
2021/12/07 08:03:23;;;;;;;;;19.67;13.67;;;;;;;;4972932;28;46498;-71
2021/12/07 08:05:48;;;;;;;;;20.00;17.67;;;;;;;;4977382;28;45329;-71
2021/12/07 08:08:14;;;;;;;;;20.00;14.67;;;;;;;;4973730;28;45319;-71
2021/12/07 08:10:39;;;;;;;;;26.33;16.33;;;;;;;;4973702;28;45712;-71
2021/12/07 08:13:06;;;;;;;;;19.00;14.50;;;;;;;;4974014;28;45618;-71
2021/12/07 08:15:34;;;;;;;;;19.00;15.25;;;;;;;;4973912;28;45843;-71
2021/12/07 08:17:59;;;;;;;;;20.75;18.00;;;;;;;;4977183;28;45579;-71
2021/12/07 08:20:24;;;;;;;;;17.33;16.67;;;;;;;;4971499;28;45815;-71
2021/12/07 08:22:50;;;;;;;;;19.75;15.50;;;;;;;;4975809;28;46560;-71
2021/12/07 08:25:15;;;;;;;;;19.00;16.00;;;;;;;;4973897;28;45567;-72
2021/12/07 08:27:40;;;;;;;;;14.00;11.67;;;;;;;;4976016;28;45487;-71
2021/12/07 08:30:08;;;;;;;;;15.25;10.50;;;;;;;;4980290;28;45843;-71
2021/12/07 08:32:33;;;;;;;;;17.00;13.75;;;;;;;;4990345;28;46460;-71
2021/12/07 08:34:58;;;;;;;;;14.25;10.50;;;;;;;;4973388;28;45438;-71
2021/12/07 08:37:24;;;;;;;;;12.33;10.00;;;;;;;;4976512;28;45382;-71
2021/12/07 08:39:49;;;;;;;;;16.00;13.00;;;;;;;;4967765;28;45454;-72
2021/12/07 08:42:15;;;;;;;;;10.00;5.67;;;;;;;;4958469;28;46372;-72
2021/12/07 08:44:40;;;;;;;;;20.50;12.75;;;;;;;;4956750;28;46233;-72
2021/12/07 08:47:06;;;;;;;;;14.75;11.75;;;;;;;;4955659;28;46074;-72
2021/12/07 08:49:31;;;;;;;;;16.33;8.33;;;;;;;;4956983;28;46348;-72
2021/12/07 08:51:56;;;;;;;;;14.33;9.33;;;;;;;;4956778;28;48417;-71
2021/12/07 08:59:39;;;;;;;;;12.00;9.00;;;;;;;;4958425;28;45494;-72
2021/12/07 08:59:52;;;;;;;;;12.75;8.75;;;;;;;;4971020;28;45446;-71
2021/12/07 09:02:20;;;;;;;;;12.25;10.75;;;;;;;;4972889;28;48167;-72
2021/12/07 09:04:46;;;;;;;;;17.25;11.75;;;;;;;;4974653;28;46336;-72
2021/12/07 09:07:11;;;;;;;;;9.25;5.25;;;;;;;;4977067;28;45472;-72
2021/12/07 09:09:37;;;;;;;;;16.75;12.75;;;;;;;;4972772;28;45374;-71
2021/12/07 09:12:06;;;;;;;;;15.50;12.25;;;;;;;;4983472;28;47162;-71
2021/12/07 09:14:31;;;;;;;;;18.50;12.00;;;;;;;;4973926;28;45482;-72
2021/12/07 09:16:57;;;;;;;;;16.75;12.50;;;;;;;;4975229;28;45554;-71
2021/12/07 09:19:23;;;;;;;;;23.00;12.75;;;;;;;;4975004;28;45432;-72
2021/12/07 09:21:48;;;;;;;;;17.75;13.00;;;;;;;;4987411;28;46092;-71
2021/12/07 09:24:13;;;;;;;;;13.00;10.00;;;;;;;;4969943;28;45545;-72
2021/12/07 09:26:38;;;;;;;;;17.00;10.00;;;;;;;;4984480;28;45395;-71
2021/12/07 09:29:06;;;;;;;;;16.00;12.50;;;;;;;;4974185;28;45559;-72
2021/12/07 09:31:31;;;;;;;;;12.50;9.00;;;;;;;;4972386;28;46620;-72
2021/12/07 09:33:57;;;;;;;;;17.75;13.25;;;;;;;;4973783;28;45470;-71
2021/12/07 09:36:22;;;;;;;;;18.25;16.25;;;;;;;;4971681;28;45710;-71
2021/12/07 09:38:47;;;;;;;;;13.50;13.50;;;;;;;;4972914;28;45440;-72
2021/12/07 09:41:14;;;;;;;;;9.67;8.67;;;;;;;;4970631;28;45541;-71
2021/12/07 09:43:40;;;;;;;;;16.25;13.00;;;;;;;;4969528;28;46050;-72
2021/12/07 09:46:06;;;;;;;;;12.25;8.25;;;;;;;;4970462;28;45389;-71
2021/12/07 09:48:32;;;;;;;;;13.25;10.50;;;;;;;;4974223;28;47605;-72
2021/12/07 09:50:57;;;;;;;;;19.75;12.50;;;;;;;;4972803;28;46263;-72
2021/12/07 09:53:24;;;;;;;;;14.25;9.75;;;;;;;;4969292;28;45471;-72
2021/12/07 09:55:50;;;;;;;;;12.75;8.00;;;;;;;;4969747;28;45778;-72
2021/12/07 09:58:16;;;;;;;;;9.00;5.00;;;;;;;;4968832;28;45774;-71
2021/12/07 10:00:42;;;;;;;;;7.25;5.00;;;;;;;;4970767;28;46551;-71
2021/12/07 10:03:07;;;;;;;;;10.00;7.50;;;;;;;;4973594;28;45495;-71
2021/12/07 10:05:35;;;;;;;;;9.33;6.67;;;;;;;;4974049;28;45352;-71
2021/12/07 10:08:00;;;;;;;;;11.25;6.00;;;;;;;;4973018;28;45495;-71
2021/12/07 10:10:31;;;;;;;;;9.50;5.75;;;;;;;;4972997;28;46607;-72
2021/12/07 10:12:56;;;;;;;;;8.50;7.00;;;;;;;;4975840;28;45851;-72
2021/12/07 10:15:22;;;;;;;;;11.75;6.25;;;;;;;;4972706;28;46737;-71
2021/12/07 10:18:05;;;;;;;;;12.00;5.75;;;;;;;;4976295;28;45409;-71
2021/12/07 10:20:39;;;;;;;;;11.75;7.50;;;;;;;;4977825;28;45352;-71
2021/12/07 10:23:24;;;;;;;;;11.75;6.50;;;;;;;;4972441;28;45829;-72
2021/12/07 10:25:54;;;;;;;;;12.50;7.75;;;;;;;;4967244;28;45403;-71
2021/12/07 10:28:27;;;;;;;;;10.50;8.75;;;;;;;;4970919;28;45385;-72
2021/12/07 10:30:52;;;;;;;;;8.50;6.00;;;;;;;;4973760;28;46321;-71
2021/12/07 10:33:35;;;;;;;;;12.50;11.50;;;;;;;;4956382;28;45366;-71
2021/12/07 10:36:15;;;;;;;;;9.00;7.00;;;;;;;;4975279;28;45429;-71
2021/12/07 10:38:41;;;;;;;;;12.75;9.25;;;;;;;;4974422;28;45450;-72
2021/12/07 10:41:08;;;;;;;;;9.00;9.00;;;;;;;;4974215;28;45590;-72
2021/12/07 10:43:52;;;;;;;;;13.75;9.00;;;;;;;;4973537;28;45948;-71
2021/12/07 10:46:37;;;;;;;;;13.50;9.75;;;;;;;;4973718;28;45292;-71
2021/12/07 10:49:21;;;;;;;;;18.25;10.00;;;;;;;;4973089;28;45630;-71
2021/12/07 10:52:00;;;;;;;;;6.00;6.00;;;;;;;;4973368;28;46847;-71
2021/12/07 10:54:27;;;;;;;;;13.75;10.00;;;;;;;;4974781;28;45529;-72
2021/12/07 10:56:52;;;;;;;;;13.25;12.50;;;;;;;;4974801;28;45331;-71
2021/12/07 10:59:18;;;;;;;;;15.50;9.75;;;;;;;;4972208;28;45321;-71
2021/12/07 11:01:44;;;;;;;;;19.25;10.50;;;;;;;;4972021;28;46595;-72
2021/12/07 11:04:28;;;;;;;;;7.25;5.25;;;;;;;;4971481;28;45953;-72
2021/12/07 11:07:04;;;;;;;;;6.25;6.25;;;;;;;;4971004;28;45534;-72
2021/12/07 11:09:29;;;;;;;;;9.25;9.25;;;;;;;;4973598;28;45580;-71
2021/12/07 11:12:14;;;;;;;;;9.00;7.00;;;;;;;;4975649;28;46398;-72
2021/12/07 11:14:39;;;;;;;;;10.50;9.00;;;;;;;;4968089;28;45304;-72
2021/12/07 11:17:05;;;;;;;;;15.33;9.67;;;;;;;;4969521;28;45486;-71
2021/12/07 11:19:31;;;;;;;;;11.25;6.50;;;;;;;;4972253;28;45766;-71
2021/12/07 11:21:56;;;;;;;;;5.33;5.33;;;;;;;;4973433;28;45648;-71
2021/12/07 11:24:21;;;;;;;;;12.50;9.00;;;;;;;;4972734;28;45349;-71
2021/12/07 11:29:40;;;;;;;;;14.75;9.25;;;;;;;;4972580;28;45513;-71
2021/12/07 11:32:08;;;;;;;;;14.00;10.00;;;;;;;;4972944;28;45396;-71
2021/12/07 11:34:39;;;;;;;;;14.75;7.50;;;;;;;;4970399;28;45426;-72
2021/12/07 11:37:06;;;;;;;;;5.75;4.00;;;;;;;;4971501;28;45593;-72
2021/12/07 11:39:36;;;;;;;;;4.75;2.25;;;;;;;;4974578;28;45351;-71
2021/12/07 11:42:01;;;;;;;;;10.50;5.00;;;;;;;;4977768;28;45388;-71
2021/12/07 11:44:28;;;;;;;;;9.00;6.00;;;;;;;;4975875;28;45491;-71
2021/12/07 11:46:53;;;;;;;;;8.00;6.00;;;;;;;;4980194;28;45555;-72
2021/12/07 11:49:24;;;;;;;;;14.25;8.00;;;;;;;;4975393;28;45527;-71
2021/12/07 11:51:50;;;;;;;;;3.50;2.00;;;;;;;;4975662;28;46195;-72
2021/12/07 11:54:17;;;;;;;;;8.00;6.00;;;;;;;;4975631;28;46042;-71
2021/12/07 11:56:43;;;;;;;;;8.50;6.50;;;;;;;;4977871;28;45373;-71
2021/12/07 11:59:09;;;;;;;;;6.75;4.75;;;;;;;;4974984;28;45437;-72
2021/12/07 12:01:34;;;;;;;;;5.00;5.00;;;;;;;;4974226;28;46484;-71
2021/12/07 12:03:59;;;;;;;;;9.00;7.00;;;;;;;;4974799;28;45446;-71
2021/12/07 12:06:25;;;;;;;;;6.00;5.00;;;;;;;;4975338;28;45440;-72
2021/12/07 12:08:50;;;;;;;;;8.00;6.00;;;;;;;;4976786;28;45482;-72
2021/12/07 12:11:21;;;;;;;;;6.75;3.00;;;;;;;;4974493;28;45697;-70
2021/12/07 12:13:56;;;;;;;;;10.00;6.00;;;;;;;;4974758;28;45396;-72
2021/12/07 12:16:21;;;;;;;;;10.00;3.00;;;;;;;;4974306;28;45547;-72
2021/12/07 12:19:06;;;;;;;;;9.00;2.00;;;;;;;;4971853;28;45454;-72
2021/12/07 12:21:44;;;;;;;;;5.50;5.25;;;;;;;;4957030;28;45689;-72
2021/12/07 12:24:09;;;;;;;;;6.75;5.00;;;;;;;;4973919;28;45435;-72
2021/12/07 12:26:36;;;;;;;;;4.33;2.33;;;;;;;;4973531;28;45361;-71
2021/12/07 12:29:14;;;;;;;;;5.75;5.50;;;;;;;;4968132;28;45392;-72
2021/12/07 12:31:53;;;;;;;;;7.75;5.25;;;;;;;;4971237;28;46571;-72
2021/12/07 12:34:20;;;;;;;;;7.00;5.00;;;;;;;;4970053;28;47060;-72
2021/12/07 12:37:04;;;;;;;;;5.75;5.75;;;;;;;;4977863;28;45617;-72
2021/12/07 12:39:58;;;;;;;;;7.00;5.50;;;;;;;;4971775;28;45639;-72
2021/12/07 12:42:24;;;;;;;;;9.00;5.50;;;;;;;;4958935;28;46648;-72
2021/12/07 12:44:54;;;;;;;;;1.50;1.50;;;;;;;;4973685;28;45806;-72
2021/12/07 12:47:23;;;;;;;;;8.25;6.75;;;;;;;;4969320;28;45420;-71
2021/12/07 12:49:49;;;;;;;;;5.00;5.00;;;;;;;;4966265;28;45544;-72
2021/12/07 12:52:14;;;;;;;;;7.33;4.33;;;;;;;;4961637;28;45509;-72
2021/12/07 12:54:44;;;;;;;;;2.33;2.00;;;;;;;;4978944;28;45344;-71
2021/12/07 12:57:14;;;;;;;;;5.50;2.25;;;;;;;;4988208;28;45621;-72
2021/12/07 12:59:41;;;;;;;;;4.00;3.00;;;;;;;;4974093;28;45462;-72
2021/12/07 13:02:06;;;;;;;;;6.00;2.75;;;;;;;;4970755;28;45721;-72
2021/12/07 13:04:34;;;;;;;;;5.00;3.00;;;;;;;;4972337;28;45550;-72
2021/12/07 13:09:36;;;;;;;;;5.25;4.00;;;;;;;;4972911;28;45629;-71
2021/12/07 13:12:21;;;;;;;;;3.25;2.00;;;;;;;;4976589;28;46849;-72
2021/12/07 13:14:50;;;;;;;;;7.50;3.50;;;;;;;;4975562;28;45970;-71
2021/12/07 13:17:27;;;;;;;;;7.75;3.50;;;;;;;;4974100;28;46448;-72
2021/12/07 13:20:10;;;;;;;;;2.00;2.00;;;;;;;;4974776;28;45369;-71
2021/12/07 13:22:45;;;;;;;;;8.00;5.50;;;;;;;;4971151;28;45514;-71
2021/12/07 13:25:30;;;;;;;;;8.50;4.00;;;;;;;;4972203;28;45570;-71
2021/12/07 13:28:05;;;;;;;;;7.25;6.00;;;;;;;;4973214;28;45498;-71
2021/12/07 13:30:53;;;;;;;;;5.00;3.00;;;;;;;;4974243;28;45595;-71
2021/12/07 13:33:31;;;;;;;;;8.25;6.00;;;;;;;;4974568;28;45581;-71
2021/12/07 13:35:57;;;;;;;;;7.50;6.75;;;;;;;;4961328;28;45482;-70
2021/12/07 13:38:25;;;;;;;;;4.00;3.00;;;;;;;;4971709;28;45289;-71
2021/12/07 13:40:51;;;;;;;;;6.00;4.75;;;;;;;;4971789;28;45562;-71
2021/12/07 13:43:30;;;;;;;;;11.25;4.00;;;;;;;;4972451;28;46962;-72
2021/12/07 13:46:14;;;;;;;;;8.50;4.00;;;;;;;;4961805;28;45530;-71
2021/12/07 13:48:40;;;;;;;;;7.00;5.00;;;;;;;;4963669;28;45484;-71
2021/12/07 13:51:06;;;;;;;;;7.00;2.00;;;;;;;;4959617;28;45480;-72
2021/12/07 13:53:31;;;;;;;;;10.75;6.50;;;;;;;;4969617;28;46041;-71
2021/12/07 13:55:56;;;;;;;;;8.75;7.00;;;;;;;;4969391;28;45226;-70
2021/12/07 13:58:22;;;;;;;;;5.25;2.50;;;;;;;;4973128;28;45409;-72
2021/12/07 14:00:47;;;;;;;;;6.00;5.00;;;;;;;;4975070;28;45484;-71
2021/12/07 14:03:14;;;;;;;;;7.67;2.67;;;;;;;;4969980;28;46695;-71
2021/12/07 14:05:41;;;;;;;;;7.00;2.75;;;;;;;;4979352;28;45286;-72
2021/12/07 14:08:07;;;;;;;;;5.50;5.00;;;;;;;;4972797;28;45439;-71
2021/12/07 14:10:34;;;;;;;;;1.50;1.50;;;;;;;;4974568;28;45508;-71
2021/12/07 14:13:00;;;;;;;;;4.50;3.00;;;;;;;;4972344;28;46570;-71
2021/12/07 14:15:37;;;;;;;;;6.75;3.00;;;;;;;;4973116;28;46177;-71
2021/12/07 14:18:04;;;;;;;;;10.00;5.25;;;;;;;;4974534;28;45487;-71
2021/12/07 14:20:36;;;;;;;;;4.50;2.50;;;;;;;;4974085;28;45562;-71
2021/12/07 14:23:13;;;;;;;;;8.50;4.00;;;;;;;;4970976;28;45528;-71
2021/12/07 14:25:53;;;;;;;;;7.00;5.00;;;;;;;;4975549;28;45821;-71
2021/12/07 14:28:23;;;;;;;;;4.50;4.50;;;;;;;;4974210;28;45363;-71
2021/12/07 14:30:48;;;;;;;;;5.75;5.75;;;;;;;;4973620;28;46816;-71
2021/12/07 14:33:13;;;;;;;;;6.00;5.67;;;;;;;;4973547;28;45455;-71
2021/12/07 14:35:38;;;;;;;;;4.33;2.67;;;;;;;;4975415;28;45399;-71
2021/12/07 14:38:04;;;;;;;;;5.00;5.00;;;;;;;;4972283;28;45423;-71
2021/12/07 14:40:29;;;;;;;;;7.50;5.50;;;;;;;;4974363;28;45323;-71
2021/12/07 14:42:55;;;;;;;;;5.00;3.00;;;;;;;;4995154;28;47076;-71
2021/12/07 14:45:20;;;;;;;;;5.00;3.00;;;;;;;;4973187;28;45487;-73
2021/12/07 14:47:45;;;;;;;;;7.00;4.33;;;;;;;;4975548;28;45681;-71
2021/12/07 14:50:10;;;;;;;;;5.67;3.00;;;;;;;;4972276;28;45467;-71
2021/12/07 14:52:36;;;;;;;;;6.67;6.67;;;;;;;;4972171;28;45473;-71
2021/12/07 14:55:02;;;;;;;;;7.00;6.00;;;;;;;;4973396;28;45331;-72
2021/12/07 14:57:27;;;;;;;;;5.25;3.00;;;;;;;;4973002;28;45453;-71
2021/12/07 14:59:57;;;;;;;;;12.00;8.25;;;;;;;;4976908;28;45514;-71
2021/12/07 15:02:23;;;;;;;;;7.00;5.25;;;;;;;;4971735;28;45649;-71
2021/12/07 15:04:59;;;;;;;;;5.00;3.75;;;;;;;;4972258;28;45780;-72
2021/12/07 15:07:31;;;;;;;;;5.50;4.00;;;;;;;;4972907;28;45612;-72
2021/12/07 15:09:57;;;;;;;;;10.75;5.75;;;;;;;;4973421;28;45412;-72
2021/12/07 15:12:23;;;;;;;;;5.25;5.25;;;;;;;;4972259;28;46315;-72
2021/12/07 15:14:55;;;;;;;;;8.25;3.50;;;;;;;;4977682;28;45827;-72
2021/12/07 15:17:20;;;;;;;;;5.75;5.75;;;;;;;;4980093;28;45360;-72
2021/12/07 15:19:45;;;;;;;;;8.50;5.00;;;;;;;;4978050;28;45423;-71
2021/12/07 15:22:13;;;;;;;;;2.67;2.00;;;;;;;;4976072;28;45378;-71
2021/12/07 15:24:38;;;;;;;;;7.00;5.00;;;;;;;;4979455;28;45522;-71
2021/12/07 15:27:05;;;;;;;;;3.00;3.00;;;;;;;;4978337;28;45352;-71
2021/12/07 15:29:31;;;;;;;;;5.00;3.00;;;;;;;;4978023;28;45562;-71
2021/12/07 15:31:56;;;;;;;;;4.00;3.50;;;;;;;;4974186;28;46419;-72
2021/12/07 15:34:23;;;;;;;;;5.67;3.00;;;;;;;;4975242;28;45435;-71
2021/12/07 15:36:55;;;;;;;;;6.00;2.50;;;;;;;;4969396;28;45422;-71
2021/12/07 15:39:21;;;;;;;;;4.00;3.00;;;;;;;;4978594;28;45494;-71
2021/12/07 15:41:51;;;;;;;;;7.00;3.50;;;;;;;;4976960;28;46386;-71
2021/12/07 15:44:17;;;;;;;;;2.25;2.00;;;;;;;;4976776;28;45471;-71
2021/12/07 15:46:53;;;;;;;;;4.25;2.50;;;;;;;;4974577;28;45570;-71
2021/12/07 15:49:23;;;;;;;;;10.25;5.75;;;;;;;;4972091;28;45472;-71
2021/12/07 15:51:52;;;;;;;;;1.50;1.50;;;;;;;;4974514;28;46633;-71
2021/12/07 15:54:18;;;;;;;;;3.50;2.25;;;;;;;;4976116;28;45341;-71
2021/12/07 15:56:43;;;;;;;;;3.25;0.00;;;;;;;;4990437;28;45465;-72
2021/12/07 15:59:13;;;;;;;;;5.33;3.00;;;;;;;;4979253;28;45399;-72
2021/12/07 16:01:38;;;;;;;;;2.00;1.00;;;;;;;;4974306;28;47505;-71
2021/12/07 16:04:04;;;;;;;;;2.67;1.00;;;;;;;;4975108;28;45463;-72
2021/12/07 16:06:29;;;;;;;;;6.00;1.00;;;;;;;;4973404;28;45401;-72
2021/12/07 16:08:55;;;;;;;;;5.67;3.00;;;;;;;;4977433;28;45461;-71
2021/12/07 16:11:22;;;;;;;;;7.25;2.00;;;;;;;;4977657;28;45450;-71
2021/12/07 16:13:54;;;;;;;;;3.00;3.00;;;;;;;;4980579;28;45734;-71
2021/12/07 16:16:21;;;;;;;;;5.25;2.00;;;;;;;;4976256;28;45318;-72
2021/12/07 16:18:47;;;;;;;;;2.00;1.00;;;;;;;;4974469;28;45483;-71
2021/12/07 16:21:13;;;;;;;;;4.00;1.50;;;;;;;;4975424;28;46213;-71